createdAt,value
2017-08-01T00:01:11.582Z,6.30
2017-08-01T00:03:41.030Z,6.73
2017-08-01T00:06:10.492Z,7.73
2017-08-01T00:08:39.973Z,8.23
2017-08-01T00:11:10.249Z,7.57
2017-08-01T00:13:39.684Z,6.77
2017-08-01T00:16:09.149Z,6.93
2017-08-01T00:18:38.598Z,7.87
2017-08-01T00:21:08.051Z,5.63
2017-08-01T00:23:37.496Z,7.80
2017-08-01T00:26:06.968Z,6.37
2017-08-01T00:28:36.404Z,7.30
2017-08-01T00:31:05.869Z,11.33
2017-08-01T00:33:35.307Z,6.00
2017-08-01T00:36:04.778Z,7.80
2017-08-01T00:38:34.210Z,8.07
2017-08-01T00:41:03.645Z,6.53
2017-08-01T00:43:33.118Z,7.30
2017-08-01T00:46:02.581Z,7.20
2017-08-01T00:48:32.019Z,11.00
2017-08-01T00:51:01.464Z,7.60
2017-08-01T00:53:30.910Z,9.70
2017-08-01T00:56:00.336Z,11.43
2017-08-01T00:58:29.780Z,8.00
2017-08-01T01:00:59.248Z,8.40
2017-08-01T01:03:29.362Z,9.07
2017-08-01T01:05:58.806Z,8.83
2017-08-01T01:08:28.250Z,5.33
2017-08-01T01:10:57.696Z,5.80
2017-08-01T01:13:27.137Z,7.13
2017-08-01T01:15:56.633Z,6.83
2017-08-01T01:18:25.881Z,7.93
2017-08-01T01:20:55.338Z,12.10
2017-08-01T01:23:24.805Z,11.03
2017-08-01T01:25:54.248Z,7.43
2017-08-01T01:28:23.687Z,6.17
2017-08-01T01:30:53.145Z,12.50
2017-08-01T01:33:22.597Z,9.53
2017-08-01T01:35:52.046Z,11.30
2017-08-01T01:38:21.524Z,6.93
2017-08-01T01:40:50.634Z,7.33
2017-08-01T01:43:20.092Z,6.50
2017-08-01T01:45:49.541Z,7.93
2017-08-01T01:48:19.059Z,10.53
2017-08-01T01:50:49.008Z,16.03
2017-08-01T01:53:18.158Z,6.73
2017-08-01T01:55:47.580Z,11.57
2017-08-01T01:58:17.044Z,10.50
2017-08-01T02:00:46.165Z,6.97
2017-08-01T02:03:15.624Z,12.93
2017-08-01T02:05:45.069Z,6.83
2017-08-01T02:08:14.512Z,10.60
2017-08-01T02:10:44.005Z,8.50
2017-08-01T02:13:13.481Z,10.83
2017-08-01T02:15:42.916Z,9.43
2017-08-01T02:18:12.185Z,6.30
2017-08-01T02:20:41.637Z,9.53
2017-08-01T02:23:10.776Z,8.07
2017-08-01T02:25:40.071Z,9.10
2017-08-01T02:28:09.714Z,11.27
2017-08-01T02:30:39.152Z,7.53
2017-08-01T02:33:08.625Z,6.80
2017-08-01T02:35:38.110Z,11.57
2017-08-01T02:38:07.536Z,8.57
2017-08-01T02:40:37.026Z,13.03
2017-08-01T02:43:06.478Z,7.47
2017-08-01T02:45:35.908Z,11.83
2017-08-01T02:48:05.366Z,7.40
2017-08-01T02:50:34.815Z,7.20
2017-08-01T02:53:04.277Z,9.67
2017-08-01T02:55:33.708Z,7.30
2017-08-01T02:58:03.173Z,7.10
2017-08-01T03:00:32.615Z,10.80
2017-08-01T03:03:01.877Z,8.33
2017-08-01T03:05:31.328Z,7.40
2017-08-01T03:08:00.784Z,11.97
2017-08-01T03:10:30.242Z,9.53
2017-08-01T03:12:59.715Z,8.47
2017-08-01T03:15:29.137Z,9.80
2017-08-01T03:17:58.597Z,10.40
2017-08-01T03:20:28.059Z,8.40
2017-08-01T03:22:57.509Z,13.60
2017-08-01T03:25:26.960Z,5.97
2017-08-01T03:27:56.397Z,9.70
2017-08-01T03:30:25.857Z,7.30
2017-08-01T03:32:55.313Z,8.67
2017-08-01T03:35:24.774Z,8.60
2017-08-01T03:37:54.216Z,10.60
2017-08-01T03:40:23.735Z,14.90
2017-08-01T03:42:53.178Z,7.30
2017-08-01T03:45:22.688Z,11.40
2017-08-01T03:47:52.165Z,6.20
2017-08-01T03:50:21.672Z,12.57
2017-08-01T03:52:51.116Z,13.50
2017-08-01T03:55:20.610Z,12.73
2017-08-01T03:57:50.139Z,7.33
2017-08-01T04:00:19.618Z,5.70
2017-08-01T04:02:49.036Z,9.80
2017-08-01T04:05:18.533Z,11.33
2017-08-01T04:07:47.970Z,10.37
2017-08-01T04:10:17.465Z,8.30
2017-08-01T04:12:46.904Z,9.87
2017-08-01T04:15:16.528Z,12.37
2017-08-01T04:17:46.151Z,5.60
2017-08-01T04:20:15.621Z,8.97
2017-08-01T04:22:45.214Z,12.40
2017-08-01T04:25:14.681Z,7.80
2017-08-01T04:27:44.162Z,7.83
2017-08-01T04:30:13.628Z,9.87
2017-08-01T04:32:43.297Z,9.20
2017-08-01T04:35:12.781Z,10.23
2017-08-01T04:37:42.226Z,9.47
2017-08-01T04:40:11.685Z,6.20
2017-08-01T04:42:41.512Z,9.90
2017-08-01T04:45:10.998Z,15.30
2017-08-01T04:47:40.258Z,16.33
2017-08-01T04:50:09.736Z,8.87
2017-08-01T04:52:39.201Z,15.83
2017-08-01T04:55:08.698Z,11.43
2017-08-01T04:57:38.182Z,12.30
2017-08-01T05:00:07.668Z,16.33
2017-08-01T05:02:37.101Z,11.30
2017-08-01T05:05:06.601Z,8.80
2017-08-01T05:07:36.034Z,7.83
2017-08-01T05:10:05.605Z,10.83
2017-08-01T05:12:35.042Z,11.43
2017-08-01T05:15:04.588Z,8.70
2017-08-01T05:17:34.018Z,20.60
2017-08-01T05:20:03.592Z,12.00
2017-08-01T05:22:33.051Z,11.53
2017-08-01T05:25:02.569Z,11.90
2017-08-01T05:27:32.026Z,8.80
2017-08-01T05:30:01.476Z,14.60
2017-08-01T05:32:30.928Z,10.20
2017-08-01T05:35:00.447Z,16.87
2017-08-01T05:37:29.887Z,11.90
2017-08-01T05:39:59.349Z,15.03
2017-08-01T05:42:28.782Z,6.97
2017-08-01T05:44:58.237Z,8.23
2017-08-01T05:47:27.685Z,10.40
2017-08-01T05:49:57.139Z,12.37
2017-08-01T05:52:26.589Z,11.70
2017-08-01T05:54:56.029Z,14.60
2017-08-01T05:57:25.507Z,15.43
2017-08-01T05:59:54.968Z,11.27
2017-08-01T06:02:24.435Z,11.67
2017-08-01T06:04:53.890Z,12.90
2017-08-01T06:07:23.338Z,15.33
2017-08-01T06:09:52.771Z,9.97
2017-08-01T06:12:22.221Z,10.30
2017-08-01T06:14:51.492Z,13.63
2017-08-01T06:17:20.945Z,20.77
2017-08-01T06:19:50.400Z,26.20
2017-08-01T06:22:19.847Z,21.83
2017-08-01T06:24:49.305Z,22.33
2017-08-01T06:27:18.757Z,28.43
2017-08-01T06:29:48.213Z,26.20
2017-08-01T06:32:17.660Z,24.50
2017-08-01T06:34:47.115Z,25.97
2017-08-01T06:37:16.573Z,25.97
2017-08-01T06:39:45.835Z,19.97
2017-08-01T06:42:15.293Z,21.10
2017-08-01T06:44:44.736Z,19.60
2017-08-01T06:47:14.193Z,20.47
2017-08-01T06:49:43.648Z,25.73
2017-08-01T06:52:13.088Z,18.10
2017-08-01T06:54:42.546Z,16.97
2017-08-01T06:57:13.621Z,18.93
2017-08-01T06:59:43.060Z,15.20
2017-08-01T07:02:12.621Z,22.77
2017-08-01T07:04:42.078Z,17.23
2017-08-01T07:07:11.549Z,22.10
2017-08-01T07:09:40.986Z,19.83
2017-08-01T07:12:10.439Z,17.83
2017-08-01T07:14:39.895Z,20.67
2017-08-01T07:17:09.340Z,19.57
2017-08-01T07:19:38.902Z,11.20
2017-08-01T07:22:08.359Z,15.43
2017-08-01T07:24:37.805Z,10.73
2017-08-01T07:27:07.275Z,11.80
2017-08-01T07:29:36.729Z,10.80
2017-08-01T07:32:06.177Z,8.80
2017-08-01T07:34:35.623Z,8.63
2017-08-01T07:37:04.879Z,13.80
2017-08-01T07:39:34.331Z,9.67
2017-08-01T07:42:03.806Z,14.00
2017-08-01T07:44:33.263Z,11.37
2017-08-01T07:47:02.716Z,26.17
2017-08-01T07:49:32.172Z,10.40
2017-08-01T07:52:01.627Z,11.33
2017-08-01T07:54:31.076Z,13.90
2017-08-01T07:57:00.534Z,17.67
2017-08-01T07:59:29.988Z,10.23
2017-08-01T08:01:59.426Z,5.17
2017-08-01T08:04:28.885Z,13.03
2017-08-01T08:06:58.352Z,9.33
2017-08-01T08:09:27.784Z,11.50
2017-08-01T08:11:57.234Z,11.47
2017-08-01T08:14:26.682Z,12.90
2017-08-01T08:16:56.124Z,7.27
2017-08-01T08:19:25.576Z,10.07
2017-08-01T08:21:55.033Z,9.93
2017-08-01T08:24:24.492Z,8.10
2017-08-01T08:26:53.925Z,13.90
2017-08-01T08:29:23.396Z,9.07
2017-08-01T08:31:52.830Z,9.73
2017-08-01T08:34:22.283Z,10.13
2017-08-01T08:36:51.731Z,12.93
2017-08-01T08:39:21.164Z,8.00
2017-08-01T08:41:50.617Z,11.60
2017-08-01T08:44:20.059Z,9.47
2017-08-01T08:46:49.514Z,10.33
2017-08-01T08:49:18.958Z,9.40
2017-08-01T08:51:48.413Z,5.00
2017-08-01T08:54:17.877Z,11.33
2017-08-01T08:56:47.346Z,12.43
2017-08-01T08:59:16.799Z,6.23
2017-08-01T09:01:46.249Z,8.10
2017-08-01T09:04:15.712Z,11.63
2017-08-01T09:06:45.160Z,8.20
2017-08-01T09:09:14.623Z,12.03
2017-08-01T09:11:44.736Z,10.40
2017-08-01T09:14:14.188Z,8.83
2017-08-01T09:16:43.632Z,7.63
2017-08-01T09:19:13.101Z,7.87
2017-08-01T09:21:42.554Z,14.50
2017-08-01T09:24:12.002Z,10.03
2017-08-01T09:26:41.445Z,7.77
2017-08-01T09:29:10.728Z,11.33
2017-08-01T09:31:40.169Z,6.03
2017-08-01T09:34:09.621Z,16.43
2017-08-01T09:36:39.077Z,10.00
2017-08-01T09:39:08.522Z,10.23
2017-08-01T09:41:37.971Z,14.03
2017-08-01T09:44:07.426Z,12.40
2017-08-01T09:46:36.861Z,6.10
2017-08-01T09:49:06.317Z,7.43
2017-08-01T09:51:35.757Z,8.80
2017-08-01T09:54:05.193Z,14.43
2017-08-01T09:56:34.643Z,8.03
2017-08-01T09:59:04.101Z,7.63
2017-08-01T10:01:33.556Z,6.97
2017-08-01T10:04:02.986Z,8.00
2017-08-01T10:06:32.449Z,13.93
2017-08-01T10:09:01.905Z,13.07
2017-08-01T10:11:31.363Z,11.90
2017-08-01T10:14:00.803Z,9.90
2017-08-01T10:16:30.257Z,11.53
2017-08-01T10:18:59.892Z,7.27
2017-08-01T10:21:29.335Z,12.30
2017-08-01T10:23:58.770Z,10.53
2017-08-01T10:26:28.218Z,8.50
2017-08-01T10:28:57.678Z,9.57
2017-08-01T10:31:27.138Z,14.77
2017-08-01T10:33:56.582Z,10.83
2017-08-01T10:36:26.025Z,9.70
2017-08-01T10:38:55.464Z,22.77
2017-08-01T10:41:24.916Z,14.70
2017-08-01T10:43:54.379Z,6.53
2017-08-01T10:46:23.823Z,10.80
2017-08-01T10:48:53.273Z,11.67
2017-08-01T10:51:22.744Z,6.10
2017-08-01T10:53:52.200Z,8.87
2017-08-01T10:56:21.654Z,10.67
2017-08-01T10:58:51.095Z,10.33
2017-08-01T11:01:20.550Z,5.47
2017-08-01T11:03:50.000Z,12.60
2017-08-01T11:06:19.481Z,14.70
2017-08-01T11:08:48.917Z,13.83
2017-08-01T11:11:18.365Z,11.43
2017-08-01T11:13:47.824Z,20.53
2017-08-01T11:16:17.312Z,12.73
2017-08-01T11:18:46.769Z,15.67
2017-08-01T11:21:16.222Z,13.43
2017-08-01T11:23:45.680Z,19.23
2017-08-01T11:26:15.141Z,23.00
2017-08-01T11:28:44.602Z,19.70
2017-08-01T11:31:14.040Z,20.20
2017-08-01T11:33:43.498Z,23.17
2017-08-01T11:36:12.960Z,15.40
2017-08-01T11:38:42.405Z,15.43
2017-08-01T11:41:11.868Z,14.70
2017-08-01T11:43:41.318Z,13.50
2017-08-01T11:46:10.770Z,14.43
2017-08-01T11:48:40.242Z,14.93
2017-08-01T11:51:09.502Z,19.83
2017-08-01T11:53:38.940Z,11.90
2017-08-01T11:56:08.454Z,14.47
2017-08-01T11:58:37.884Z,12.63
2017-08-01T12:01:07.577Z,11.47
2017-08-01T12:03:37.048Z,9.63
2017-08-01T12:06:06.513Z,13.70
2017-08-01T12:08:35.948Z,9.13
2017-08-01T12:11:05.479Z,14.10
2017-08-01T12:13:34.908Z,9.23
2017-08-01T12:16:04.360Z,13.93
2017-08-01T12:18:33.824Z,13.53
2017-08-01T12:21:03.273Z,15.57
2017-08-01T12:23:32.749Z,12.53
2017-08-01T12:26:02.212Z,12.07
2017-08-01T12:28:31.758Z,12.87
2017-08-01T12:31:01.023Z,9.93
2017-08-01T12:33:30.456Z,12.67
2017-08-01T12:35:59.892Z,8.97
2017-08-01T12:38:29.165Z,16.17
2017-08-01T12:40:58.636Z,9.23
2017-08-01T12:43:28.097Z,6.63
2017-08-01T12:45:57.648Z,15.97
2017-08-01T12:48:27.088Z,9.83
2017-08-01T12:50:56.529Z,9.10
2017-08-01T12:53:25.970Z,7.70
2017-08-01T12:55:55.434Z,7.17
2017-08-01T12:58:24.887Z,8.33
2017-08-01T13:00:54.367Z,10.03
2017-08-01T13:03:23.803Z,9.67
2017-08-01T13:05:53.255Z,7.13
2017-08-01T13:08:22.697Z,5.77
2017-08-01T13:10:52.138Z,6.47
2017-08-01T13:13:21.577Z,7.00
2017-08-01T13:15:51.021Z,5.57
2017-08-01T13:18:20.484Z,4.77
2017-08-01T13:20:49.925Z,8.23
2017-08-01T13:23:19.369Z,10.53
2017-08-01T13:25:49.410Z,4.18
2017-08-01T13:28:18.842Z,3.03
2017-08-01T13:30:48.277Z,5.10
2017-08-01T13:33:17.733Z,7.67
2017-08-01T13:35:47.765Z,4.97
2017-08-01T13:38:17.793Z,7.78
2017-08-01T13:40:47.819Z,5.22
2017-08-01T13:43:17.826Z,7.32
2017-08-01T13:45:47.841Z,9.15
2017-08-01T13:48:17.849Z,8.50
2017-08-01T13:50:47.868Z,4.25
2017-08-01T13:53:17.905Z,7.60
2017-08-01T13:55:47.904Z,5.57
2017-08-01T13:58:17.917Z,6.05
2017-08-01T14:00:47.934Z,2.60
2017-08-01T14:03:17.950Z,5.20
2017-08-01T14:05:47.969Z,4.55
2017-08-01T14:08:17.989Z,6.10
2017-08-01T14:10:48.024Z,3.62
2017-08-01T14:13:18.047Z,6.35
2017-08-01T14:15:48.044Z,5.75
2017-08-01T14:18:18.046Z,9.98
2017-08-01T14:20:48.124Z,7.78
2017-08-01T14:23:18.133Z,8.00
2017-08-01T14:25:48.161Z,5.97
2017-08-01T14:28:18.172Z,7.10
2017-08-01T14:30:48.169Z,7.55
2017-08-01T14:33:18.185Z,3.12
2017-08-01T14:35:48.195Z,4.60
2017-08-01T14:38:18.201Z,8.95
2017-08-01T14:40:48.217Z,6.82
2017-08-01T14:43:18.715Z,3.22
2017-08-01T14:45:48.760Z,6.57
2017-08-01T14:48:18.764Z,3.22
2017-08-01T14:50:49.322Z,5.70
2017-08-01T14:53:19.320Z,5.40
2017-08-01T14:55:49.329Z,2.65
2017-08-01T14:58:19.357Z,5.60
2017-08-01T15:00:49.385Z,7.00
2017-08-01T15:03:19.388Z,12.20
2017-08-01T15:05:49.434Z,4.35
2017-08-01T15:08:19.454Z,5.60
2017-08-01T15:10:49.484Z,3.30
2017-08-01T15:13:19.509Z,8.57
2017-08-01T15:15:49.516Z,3.55
2017-08-01T15:18:19.545Z,5.03
2017-08-01T15:20:49.549Z,3.37
2017-08-01T15:23:19.561Z,7.50
2017-08-01T15:25:49.632Z,4.25
2017-08-01T15:28:19.681Z,3.72
2017-08-01T15:30:49.843Z,8.25
2017-08-01T15:33:19.854Z,5.22
2017-08-01T15:35:49.676Z,5.80
2017-08-01T15:38:19.699Z,3.78
2017-08-01T15:40:49.720Z,6.05
2017-08-01T15:43:19.772Z,3.33
2017-08-01T15:45:49.763Z,4.85
2017-08-01T15:48:19.834Z,4.15
2017-08-01T15:50:50.158Z,7.23
2017-08-01T15:53:20.166Z,3.12
2017-08-01T15:55:50.206Z,3.33
2017-08-01T15:58:20.236Z,2.78
2017-08-01T16:00:50.270Z,4.07
2017-08-01T16:03:19.712Z,8.80
2017-08-01T16:05:49.721Z,3.35
2017-08-01T16:08:19.755Z,4.35
2017-08-01T16:10:49.763Z,3.15
2017-08-01T16:13:19.774Z,7.10
2017-08-01T16:15:49.804Z,4.28
2017-08-01T16:18:19.849Z,5.57
2017-08-01T16:20:49.881Z,3.47
2017-08-01T16:23:19.902Z,3.70
2017-08-01T16:25:49.913Z,6.30
2017-08-01T16:28:19.944Z,5.90
2017-08-01T16:30:50.007Z,8.57
2017-08-01T16:33:20.036Z,5.10
2017-08-01T16:35:50.058Z,3.42
2017-08-01T16:38:19.531Z,5.27
2017-08-01T16:40:49.544Z,3.65
2017-08-01T16:43:19.552Z,7.15
2017-08-01T16:45:49.012Z,3.30
2017-08-01T16:48:18.468Z,3.40
2017-08-01T16:50:47.905Z,7.40
2017-08-01T16:53:17.338Z,5.60
2017-08-01T16:55:46.801Z,4.17
2017-08-01T16:58:16.254Z,11.50
2017-08-01T17:00:45.694Z,4.53
2017-08-01T17:03:15.150Z,3.70
2017-08-01T17:05:44.596Z,6.53
2017-08-01T17:08:14.053Z,5.83
2017-08-01T17:10:43.516Z,5.83
2017-08-01T17:13:12.952Z,6.40
2017-08-01T17:15:42.385Z,4.37
2017-08-01T17:18:11.952Z,12.10
2017-08-01T17:20:41.393Z,3.83
2017-08-01T17:23:10.716Z,7.13
2017-08-01T17:25:40.201Z,7.67
2017-08-01T17:28:09.647Z,7.73
2017-08-01T17:30:39.099Z,6.47
2017-08-01T17:33:08.581Z,8.87
2017-08-01T17:35:38.033Z,5.67
2017-08-01T17:38:07.494Z,8.37
2017-08-01T17:40:36.929Z,12.13
2017-08-01T17:43:06.388Z,7.07
2017-08-01T17:45:35.869Z,12.30
2017-08-01T17:48:05.322Z,10.30
2017-08-01T17:50:34.809Z,11.67
2017-08-01T17:53:04.290Z,10.20
2017-08-01T17:55:33.730Z,9.57
2017-08-01T17:58:03.174Z,9.63
2017-08-01T18:00:32.643Z,9.20
2017-08-01T18:03:02.092Z,8.90
2017-08-01T18:05:31.894Z,8.80
2017-08-01T18:08:01.429Z,13.90
2017-08-01T18:10:30.920Z,15.53
2017-08-01T18:13:00.465Z,16.57
2017-08-01T18:15:29.924Z,11.37
2017-08-01T18:17:59.382Z,6.23
2017-08-01T18:20:28.879Z,10.93
2017-08-01T18:22:58.329Z,9.53
2017-08-01T18:25:27.757Z,13.67
2017-08-01T18:27:57.308Z,9.90
2017-08-01T18:30:26.765Z,15.77
2017-08-01T18:32:56.224Z,10.63
2017-08-01T18:35:25.681Z,18.13
2017-08-01T18:37:55.146Z,17.93
2017-08-01T18:40:24.649Z,14.83
2017-08-01T18:42:54.123Z,10.47
2017-08-01T18:45:23.648Z,12.13
2017-08-01T18:47:53.105Z,13.57
2017-08-01T18:50:22.628Z,10.47
2017-08-01T18:52:52.083Z,12.77
2017-08-01T18:55:21.724Z,11.57
2017-08-01T18:57:51.022Z,12.83
2017-08-01T19:00:20.503Z,13.10
2017-08-01T19:02:49.769Z,8.57
2017-08-01T19:05:19.466Z,11.13
2017-08-01T19:07:49.158Z,10.10
2017-08-01T19:10:19.178Z,10.97
2017-08-01T19:12:48.768Z,14.70
2017-08-01T19:15:18.516Z,12.70
2017-08-01T19:17:48.046Z,14.23
2017-08-01T19:20:18.242Z,9.20
2017-08-01T19:22:47.807Z,9.33
2017-08-01T19:25:17.643Z,12.63
2017-08-01T19:27:47.474Z,12.00
2017-08-01T19:30:17.127Z,15.10
2017-08-01T19:32:46.690Z,10.50
2017-08-01T19:35:16.284Z,11.53
2017-08-01T19:37:45.843Z,11.93
2017-08-01T19:40:15.504Z,14.70
2017-08-01T19:42:45.207Z,13.87
2017-08-01T19:45:14.713Z,12.23
2017-08-01T19:47:44.144Z,14.77
2017-08-01T19:50:13.654Z,15.33
2017-08-01T19:52:43.512Z,13.33
2017-08-01T19:55:13.146Z,8.73
2017-08-01T19:57:43.210Z,12.30
2017-08-01T20:00:12.877Z,10.60
2017-08-01T20:02:42.823Z,11.37
2017-08-01T20:05:12.547Z,10.80
2017-08-01T20:07:41.824Z,10.27
2017-08-01T20:10:11.542Z,19.30
2017-08-01T20:12:41.729Z,11.43
2017-08-01T20:15:11.545Z,11.53
2017-08-01T20:17:41.306Z,15.23
2017-08-01T20:20:11.101Z,14.47
2017-08-01T20:22:42.203Z,15.23
2017-08-01T20:25:12.248Z,11.40
2017-08-01T20:27:42.090Z,11.03
2017-08-01T20:30:11.669Z,9.47
2017-08-01T20:32:41.499Z,9.17
2017-08-01T20:35:11.466Z,16.23
2017-08-01T20:37:41.190Z,10.33
2017-08-01T20:40:10.840Z,10.33
2017-08-01T20:42:40.465Z,14.27
2017-08-01T20:45:10.209Z,17.57
2017-08-01T20:47:39.837Z,11.33
2017-08-01T20:50:09.622Z,11.80
2017-08-01T20:52:39.709Z,16.87
2017-08-01T20:55:09.443Z,10.40
2017-08-01T20:57:39.274Z,10.10
2017-08-01T21:00:09.214Z,14.20
2017-08-01T21:02:39.086Z,17.97
2017-08-01T21:05:08.940Z,10.90
2017-08-01T21:07:38.865Z,11.07
2017-08-01T21:10:08.603Z,14.40
2017-08-01T21:12:38.462Z,15.37
2017-08-01T21:15:08.217Z,13.33
2017-08-01T21:17:37.845Z,11.37
2017-08-01T21:20:07.424Z,13.87
2017-08-01T21:22:37.216Z,10.25
2017-08-01T21:25:06.697Z,11.30
2017-08-01T21:27:36.146Z,10.70
2017-08-01T21:30:05.640Z,12.80
2017-08-01T21:32:35.105Z,18.90
2017-08-01T21:35:04.608Z,12.00
2017-08-01T21:37:34.081Z,11.60
2017-08-01T21:40:03.562Z,10.57
2017-08-01T21:42:33.001Z,9.33
2017-08-01T21:45:02.504Z,11.20
2017-08-01T21:47:31.950Z,12.10
2017-08-01T21:50:01.487Z,9.47
2017-08-01T21:52:30.937Z,12.67
2017-08-01T21:55:00.393Z,11.37
2017-08-01T21:57:29.852Z,13.87
2017-08-01T21:59:59.403Z,13.43
2017-08-01T22:02:28.832Z,11.57
2017-08-01T22:04:58.289Z,12.57
2017-08-01T22:07:27.757Z,9.87
2017-08-01T22:09:57.296Z,13.40
2017-08-01T22:12:26.757Z,13.20
2017-08-01T22:14:56.217Z,16.53
2017-08-01T22:17:25.668Z,12.47
2017-08-01T22:19:55.117Z,16.50
2017-08-01T22:22:24.574Z,10.77
2017-08-01T22:24:54.049Z,16.50
2017-08-01T22:27:23.484Z,18.80
2017-08-01T22:29:52.948Z,15.50
2017-08-01T22:32:22.388Z,17.93
2017-08-01T22:34:51.841Z,13.50
2017-08-01T22:37:21.304Z,10.50
2017-08-01T22:39:50.749Z,14.60
2017-08-01T22:42:20.199Z,14.90
2017-08-01T22:44:49.664Z,9.13
2017-08-01T22:47:19.151Z,11.57
2017-08-01T22:49:48.590Z,19.23
2017-08-01T22:52:18.041Z,9.37
2017-08-01T22:54:47.515Z,9.13
2017-08-01T22:57:17.024Z,8.10
2017-08-01T22:59:46.486Z,15.37
2017-08-01T23:02:15.942Z,8.40
2017-08-01T23:04:45.389Z,11.23
2017-08-01T23:07:14.856Z,11.37
2017-08-01T23:09:44.309Z,9.60
2017-08-01T23:12:13.737Z,8.33
2017-08-01T23:14:43.314Z,12.57
2017-08-01T23:17:12.739Z,8.03
2017-08-01T23:19:42.191Z,7.50
2017-08-01T23:22:11.640Z,9.80
2017-08-01T23:24:41.018Z,7.23
2017-08-01T23:27:10.465Z,10.63
2017-08-01T23:29:39.906Z,9.80
2017-08-01T23:32:09.356Z,13.40
2017-08-01T23:34:38.808Z,16.70
2017-08-01T23:37:08.268Z,8.33
2017-08-01T23:39:37.709Z,9.03
2017-08-01T23:42:07.182Z,9.30
2017-08-01T23:44:36.628Z,8.27
2017-08-01T23:47:06.069Z,11.07
2017-08-01T23:49:35.513Z,10.63
2017-08-01T23:52:04.968Z,9.40
2017-08-01T23:54:34.400Z,7.17
2017-08-01T23:57:03.851Z,7.57
2017-08-01T23:59:33.297Z,8.10
